FYBJ weather

Bitterwasser Lodge & Flying Club Airfield
Bitterwasser, Hardap Region, Namibia

Public forecast

Using degrees Celsius for public forecast. Weather courtesy of forecast.io.

METAR (pilot weather report)

Closest report is Mariental Airport, 44.0 nm (81.5 km) S. Retrieved 2019/09/22 09:00 UTC (8 minutes ago):

FYML 220900Z AUTO 13006KT //// // ////// 19/01 Q1026

TAF (pilot weather forecast)

Closest forecast is Hosea Kutako International Airport, 88.5 nm (164.0 km) NNW. Retrieved 2019/09/22 06:00 UTC (3 hours ago):

TAF FYWH 220400Z 2206/2306 26006KT CAVOK BECMG 2209/2211 13010KT